Time;durP1;ratioP1;P1;durP2;ratioP2;P2;SDS_P1;SDS_P2;PMS_P1;PMS_P2;Temp;Humidity;BMP_temperature;BMP_pressure;BME280_temperature;BME280_humidity;BME280_pressure;Samples;Min_cycle;Max_cycle;Signal;HPM_P1;HPM_P2
2023/06/23 00:00:45;;;;;;;;;;;;;;;;;;5041107;28;20443;-71
2023/06/23 00:03:13;;;;;;;;;;;;;;;;;;5043909;28;19920;-68
2023/06/23 00:05:38;;;;;;;;;;;;;;;;;;5027796;28;19920;-70
2023/06/23 00:08:05;;;;;;;;;;;;;;;;;;5040810;28;20678;-73
2023/06/23 00:10:33;;;;;;;;;;;;;;;;;;5043198;28;19916;-72
2023/06/23 00:12:58;;;;;;;;;;;;;;;;;;5045012;28;19921;-71
2023/06/23 00:15:26;;;;;;;;;;;;;;;;;;5042114;28;19965;-71
2023/06/23 00:17:54;;;;;;;;;;;;;;;;;;5041652;28;19989;-71
2023/06/23 00:20:20;;;;;;;;;;;;;;;;;;5045780;28;20696;-71
2023/06/23 00:22:47;;;;;;;;;;;;;;;;;;5045230;28;19920;-70
2023/06/23 00:25:13;;;;;;;;;;;;;;;;;;5043887;28;19920;-70
2023/06/23 00:27:38;;;;;;;;;;;;;;;;;;5040793;28;20427;-70
2023/06/23 00:30:03;;;;;;;;;;;;;;;;;;5035582;28;20529;-71
2023/06/23 00:32:28;;;;;;;;;;;;;;;;;;5042309;28;19927;-71
2023/06/23 00:34:57;;;;;;;;;;;;;;;;;;5043050;28;21026;-69
2023/06/23 00:37:22;;;;;;;;;;;;;;;;;;5045248;28;19928;-71
2023/06/23 00:39:47;;;;;;;;;;;;;;;;;;5039747;28;19932;-70
2023/06/23 00:42:13;;;;;;;;;;;;;;;;;;5040132;28;19924;-71
2023/06/23 00:44:41;;;;;;;;;;;;;;;;;;5042728;28;19921;-71
2023/06/23 00:47:09;;;;;;;;;;;;;;;;;;5027416;28;19921;-71
2023/06/23 00:49:36;;;;;;;;;;;;;;;;;;5043436;28;20361;-69
2023/06/23 00:52:07;;;;;;;;;;;;;;;;;;5043251;28;20906;-70
2023/06/23 00:54:35;;;;;;;;;;;;;;;;;;5037554;28;19924;-70
2023/06/23 00:57:00;;;;;;;;;;;;;;;;;;5042724;28;19917;-71
2023/06/23 00:59:29;;;;;;;;;;;;;;;;;;5039753;28;19920;-70
2023/06/23 01:01:56;;;;;;;;;;;;;;;;;;5044109;28;19924;-71
2023/06/23 01:04:22;;;;;;;;;;;;;;;;;;5042768;28;20649;-71
2023/06/23 01:06:47;;;;;;;;;;;;;;;;;;5044290;28;19951;-71
2023/06/23 01:09:13;;;;;;;;;;;;;;;;;;5027228;28;20233;-71
2023/06/23 01:11:41;;;;;;;;;;;;;;;;;;5043738;28;19916;-70
2023/06/23 01:14:09;;;;;;;;;;;;;;;;;;5044578;28;19970;-70
2023/06/23 01:16:37;;;;;;;;;;;;;;;;;;5043099;28;20025;-71
2023/06/23 01:19:09;;;;;;;;;;;;;;;;;;5041352;28;20611;-69
2023/06/23 01:21:35;;;;;;;;;;;;;;;;;;5041565;28;20511;-70
2023/06/23 01:24:00;;;;;;;;;;;;;;;;;;5041178;28;19927;-71
2023/06/23 01:26:28;;;;;;;;;;;;;;;;;;5042955;28;20597;-70
2023/06/23 01:28:53;;;;;;;;;;;;;;;;;;5043638;28;19920;-70
2023/06/23 01:31:21;;;;;;;;;;;;;;;;;;5046576;28;19926;-71
2023/06/23 01:33:49;;;;;;;;;;;;;;;;;;5027097;28;20015;-71
2023/06/23 01:36:17;;;;;;;;;;;;;;;;;;5043718;28;19931;-72
2023/06/23 01:38:42;;;;;;;;;;;;;;;;;;5046854;28;19916;-69
2023/06/23 01:41:08;;;;;;;;;;;;;;;;;;5040482;28;20495;-71
2023/06/23 01:43:33;;;;;;;;;;;;;;;;;;5046767;28;19920;-70
2023/06/23 01:45:58;;;;;;;;;;;;;;;;;;5060853;28;20451;-72
2023/06/23 01:48:24;;;;;;;;;;;;;;;;;;5045317;28;19943;-71
2023/06/23 01:50:49;;;;;;;;;;;;;;;;;;5047190;28;19921;-71
2023/06/23 01:53:14;;;;;;;;;;;;;;;;;;5044017;28;20380;-71
2023/06/23 01:55:43;;;;;;;;;;;;;;;;;;5045910;28;19943;-72
2023/06/23 01:58:08;;;;;;;;;;;;;;;;;;5043388;28;20099;-72
2023/06/23 02:00:33;;;;;;;;;;;;;;;;;;5043798;28;19927;-72
2023/06/23 02:03:04;;;;;;;;;;;;;;;;;;5030195;28;19927;-71
2023/06/23 02:05:31;;;;;;;;;;;;;;;;;;5044815;28;19916;-71
2023/06/23 02:07:57;;;;;;;;;;;;;;;;;;5064401;28;19931;-72
2023/06/23 02:10:27;;;;;;;;;;;;;;;;;;5046203;28;19920;-71
2023/06/23 02:12:52;;;;;;;;;;;;;;;;;;5045450;28;19920;-70
2023/06/23 02:15:18;;;;;;;;;;;;;;;;;;5046280;28;20588;-70
2023/06/23 02:17:45;;;;;;;;;;;;;;;;;;5027777;28;19954;-71
2023/06/23 02:20:14;;;;;;;;;;;;;;;;;;5044018;28;20013;-71
2023/06/23 02:22:42;;;;;;;;;;;;;;;;;;5029059;28;19924;-71
2023/06/23 02:25:07;;;;;;;;;;;;;;;;;;5044839;28;19921;-71
2023/06/23 02:27:32;;;;;;;;;;;;;;;;;;5044919;28;19923;-72
2023/06/23 02:30:00;;;;;;;;;;;;;;;;;;5042519;28;19939;-71
2023/06/23 02:32:25;;;;;;;;;;;;;;;;;;5042580;28;20371;-71
2023/06/23 02:34:53;;;;;;;;;;;;;;;;;;5044645;28;20154;-71
2023/06/23 02:37:23;;;;;;;;;;;;;;;;;;5044092;28;19997;-70
2023/06/23 02:39:51;;;;;;;;;;;;;;;;;;5043917;28;19917;-71
2023/06/23 02:42:16;;;;;;;;;;;;;;;;;;5042474;28;19932;-71
2023/06/23 02:44:42;;;;;;;;;;;;;;;;;;5042719;28;19985;-72
2023/06/23 02:47:07;;;;;;;;;;;;;;;;;;5044888;28;21952;-71
2023/06/23 02:49:32;;;;;;;;;;;;;;;;;;5042380;28;19927;-73
2023/06/23 02:51:57;;;;;;;;;;;;;;;;;;5044687;28;20429;-72
2023/06/23 02:54:23;;;;;;;;;;;;;;;;;;5028038;28;19959;-71
2023/06/23 02:56:51;;;;;;;;;;;;;;;;;;5047255;28;20643;-71
2023/06/23 02:59:19;;;;;;;;;;;;;;;;;;5026788;28;19938;-71
2023/06/23 03:01:48;;;;;;;;;;;;;;;;;;5044224;28;20474;-71
2023/06/23 03:04:14;;;;;;;;;;;;;;;;;;5042057;28;20422;-71
2023/06/23 03:06:44;;;;;;;;;;;;;;;;;;5045393;28;20123;-71
2023/06/23 03:09:12;;;;;;;;;;;;;;;;;;5028300;28;21221;-71
2023/06/23 03:11:37;;;;;;;;;;;;;;;;;;5057903;28;19922;-71
2023/06/23 03:14:02;;;;;;;;;;;;;;;;;;5047908;28;20800;-71
2023/06/23 03:16:28;;;;;;;;;;;;;;;;;;5040865;28;19920;-71
2023/06/23 03:18:53;;;;;;;;;;;;;;;;;;5047170;28;19916;-71
2023/06/23 03:21:21;;;;;;;;;;;;;;;;;;5028630;28;20158;-70
2023/06/23 03:23:49;;;;;;;;;;;;;;;;;;5045438;28;20611;-70
2023/06/23 03:26:17;;;;;;;;;;;;;;;;;;5042620;28;20665;-70
2023/06/23 03:28:43;;;;;;;;;;;;;;;;;;5042100;28;19928;-70
2023/06/23 03:31:08;;;;;;;;;;;;;;;;;;5045687;28;20134;-70
2023/06/23 03:33:34;;;;;;;;;;;;;;;;;;5022745;28;19920;-70
2023/06/23 03:36:04;;;;;;;;;;;;;;;;;;5040060;28;19928;-71
2023/06/23 03:38:29;;;;;;;;;;;;;;;;;;5039668;28;19928;-71
2023/06/23 03:40:58;;;;;;;;;;;;;;;;;;5025672;28;20093;-70
2023/06/23 03:43:26;;;;;;;;;;;;;;;;;;5024387;28;20006;-71
2023/06/23 03:45:51;;;;;;;;;;;;;;;;;;5043802;28;19924;-71
2023/06/23 03:48:19;;;;;;;;;;;;;;;;;;5041060;28;19989;-70
2023/06/23 03:50:44;;;;;;;;;;;;;;;;;;5027756;28;19920;-72
2023/06/23 03:53:10;;;;;;;;;;;;;;;;;;5044837;28;19920;-72
2023/06/23 03:55:37;;;;;;;;;;;;;;;;;;5047914;28;19920;-71
2023/06/23 03:58:02;;;;;;;;;;;;;;;;;;5026559;28;19917;-70
2023/06/23 04:00:32;;;;;;;;;;;;;;;;;;5043750;28;19920;-69
2023/06/23 04:02:58;;;;;;;;;;;;;;;;;;5040446;28;19920;-71
2023/06/23 04:05:26;;;;;;;;;;;;;;;;;;5021347;28;20052;-70
2023/06/23 04:07:51;;;;;;;;;;;;;;;;;;5031962;28;19916;-70
2023/06/23 04:10:19;;;;;;;;;;;;;;;;;;5038168;28;20636;-71
2023/06/23 04:12:44;;;;;;;;;;;;;;;;;;5042347;28;19920;-71
2023/06/23 04:15:09;;;;;;;;;;;;;;;;;;5040628;28;19949;-71
2023/06/23 04:17:38;;;;;;;;;;;;;;;;;;5027903;28;20045;-71
2023/06/23 04:20:03;;;;;;;;;;;;;;;;;;5039278;28;19921;-71
2023/06/23 04:22:31;;;;;;;;;;;;;;;;;;5027081;28;19962;-69
2023/06/23 04:24:56;;;;;;;;;;;;;;;;;;5043287;28;20346;-70
2023/06/23 04:27:22;;;;;;;;;;;;;;;;;;5042629;28;19999;-70
2023/06/23 04:29:49;;;;;;;;;;;;;;;;;;5042708;28;20068;-70
2023/06/23 04:32:15;;;;;;;;;;;;;;;;;;5041664;28;20764;-71
2023/06/23 04:34:40;;;;;;;;;;;;;;;;;;5040995;28;19969;-71
2023/06/23 04:37:08;;;;;;;;;;;;;;;;;;5023788;28;20738;-71
2023/06/23 04:39:33;;;;;;;;;;;;;;;;;;5040953;28;20008;-72
2023/06/23 04:41:59;;;;;;;;;;;;;;;;;;5039233;28;19932;-72
2023/06/23 04:44:26;;;;;;;;;;;;;;;;;;5037901;28;20882;-71
2023/06/23 04:46:54;;;;;;;;;;;;;;;;;;5041260;28;20548;-70
2023/06/23 04:49:19;;;;;;;;;;;;;;;;;;5026059;28;20283;-71
2023/06/23 04:51:46;;;;;;;;;;;;;;;;;;5037244;28;19920;-70
2023/06/23 04:54:12;;;;;;;;;;;;;;;;;;5043438;28;19931;-71
2023/06/23 04:56:37;;;;;;;;;;;;;;;;;;5025448;28;20248;-71
2023/06/23 04:59:02;;;;;;;;;;;;;;;;;;5038600;28;19955;-71
2023/06/23 05:01:27;;;;;;;;;;;;;;;;;;5020985;28;20095;-71
2023/06/23 05:03:55;;;;;;;;;;;;;;;;;;5032192;28;19921;-71
2023/06/23 05:06:21;;;;;;;;;;;;;;;;;;5040788;28;19924;-70
2023/06/23 05:08:46;;;;;;;;;;;;;;;;;;5041659;28;20534;-70
2023/06/23 05:11:17;;;;;;;;;;;;;;;;;;5023455;28;20015;-71
2023/06/23 05:13:44;;;;;;;;;;;;;;;;;;5041109;28;19921;-71
2023/06/23 05:16:13;;;;;;;;;;;;;;;;;;5041037;28;20245;-71
2023/06/23 05:18:38;;;;;;;;;;;;;;;;;;5025000;28;19925;-71
2023/06/23 05:21:06;;;;;;;;;;;;;;;;;;5026033;28;19916;-71
2023/06/23 05:23:34;;;;;;;;;;;;;;;;;;5042136;28;19958;-71
2023/06/23 05:26:00;;;;;;;;;;;;;;;;;;5040691;28;19921;-73
2023/06/23 05:28:32;;;;;;;;;;;;;;;;;;5038272;28;20323;-70
2023/06/23 05:31:00;;;;;;;;;;;;;;;;;;5062222;28;19970;-71
2023/06/23 05:33:25;;;;;;;;;;;;;;;;;;5040202;28;19920;-72
2023/06/23 05:35:51;;;;;;;;;;;;;;;;;;5044795;28;20011;-71
2023/06/23 05:38:16;;;;;;;;;;;;;;;;;;5045909;28;19962;-72
2023/06/23 05:40:44;;;;;;;;;;;;;;;;;;5045701;28;20015;-72
2023/06/23 05:43:09;;;;;;;;;;;;;;;;;;5027540;28;20307;-71
2023/06/23 05:45:37;;;;;;;;;;;;;;;;;;5030397;28;20001;-72
2023/06/23 05:48:07;;;;;;;;;;;;;;;;;;5046371;28;19916;-72
2023/06/23 05:50:35;;;;;;;;;;;;;;;;;;5062017;28;19961;-72
2023/06/23 05:53:03;;;;;;;;;;;;;;;;;;5028971;28;19943;-72
2023/06/23 05:55:31;;;;;;;;;;;;;;;;;;5048275;28;20235;-71
2023/06/23 05:57:59;;;;;;;;;;;;;;;;;;5042461;28;19920;-72
2023/06/23 06:00:25;;;;;;;;;;;;;;;;;;5048173;28;19928;-70
2023/06/23 06:02:51;;;;;;;;;;;;;;;;;;5046883;28;19924;-70
2023/06/23 06:05:19;;;;;;;;;;;;;;;;;;5045720;28;19920;-71
2023/06/23 06:07:44;;;;;;;;;;;;;;;;;;5026857;28;20291;-71
2023/06/23 06:10:09;;;;;;;;;;;;;;;;;;5047066;28;19928;-72
2023/06/23 06:12:34;;;;;;;;;;;;;;;;;;5047726;28;19920;-70
2023/06/23 06:15:00;;;;;;;;;;;;;;;;;;5044939;28;19962;-71
2023/06/23 06:17:28;;;;;;;;;;;;;;;;;;5029664;28;19927;-71
2023/06/23 06:19:53;;;;;;;;;;;;;;;;;;5044458;28;20561;-72
2023/06/23 06:22:21;;;;;;;;;;;;;;;;;;5044855;28;19921;-71
2023/06/23 06:24:46;;;;;;;;;;;;;;;;;;5027071;28;19927;-72
2023/06/23 06:27:14;;;;;;;;;;;;;;;;;;5046487;28;20013;-72
2023/06/23 06:29:39;;;;;;;;;;;;;;;;;;5044461;28;19916;-71
2023/06/23 06:32:05;;;;;;;;;;;;;;;;;;5043186;28;19921;-71
2023/06/23 06:34:33;;;;;;;;;;;;;;;;;;5038779;28;20482;-71
2023/06/23 06:36:58;;;;;;;;;;;;;;;;;;5041154;28;19928;-67
2023/06/23 06:39:23;;;;;;;;;;;;;;;;;;5043017;28;20383;-71
2023/06/23 06:41:48;;;;;;;;;;;;;;;;;;5044105;28;19955;-70
2023/06/23 06:44:14;;;;;;;;;;;;;;;;;;5046846;28;19921;-71
2023/06/23 06:46:42;;;;;;;;;;;;;;;;;;5048659;28;20506;-70
2023/06/23 06:49:07;;;;;;;;;;;;;;;;;;5047878;28;19924;-71
2023/06/23 06:51:40;;;;;;;;;;;;;;;;;;5047109;28;20027;-71
2023/06/23 06:54:05;;;;;;;;;;;;;;;;;;5046757;28;19927;-70
2023/06/23 06:56:34;;;;;;;;;;;;;;;;;;5029271;28;20338;-72
2023/06/23 06:59:02;;;;;;;;;;;;;;;;;;5049296;28;20049;-72
2023/06/23 07:01:27;;;;;;;;;;;;;;;;;;5046275;28;20398;-71
2023/06/23 07:03:58;;;;;;;;;;;;;;;;;;5030004;28;19920;-72
2023/06/23 07:06:23;;;;;;;;;;;;;;;;;;5061513;28;19938;-72
2023/06/23 07:08:50;;;;;;;;;;;;;;;;;;5029410;28;19917;-69
2023/06/23 07:14:33;;;;;;;;;;;;;;;;;;5046905;28;19927;-71
2023/06/23 07:16:58;;;;;;;;;;;;;;;;;;5047709;28;19912;-70
2023/06/23 07:19:26;;;;;;;;;;;;;;;;;;5045149;28;19923;-70
2023/06/23 07:25:10;;;;;;;;;;;;;;;;;;5047179;28;19924;-69
2023/06/23 07:30:26;;;;;;;;;;;;;;;;;;5045616;28;20504;-69
2023/06/23 07:32:53;;;;;;;;;;;;;;;;;;5044848;28;20007;-65
2023/06/23 07:35:19;;;;;;;;;;;;;;;;;;5026916;28;19927;-69
2023/06/23 07:37:44;;;;;;;;;;;;;;;;;;5045469;28;19924;-68
2023/06/23 07:40:09;;;;;;;;;;;;;;;;;;5041930;28;19962;-66
2023/06/23 07:42:37;;;;;;;;;;;;;;;;;;5026248;28;19928;-71
2023/06/23 07:45:07;;;;;;;;;;;;;;;;;;5044264;28;19943;-69
2023/06/23 07:47:35;;;;;;;;;;;;;;;;;;5044524;28;19917;-70
2023/06/23 07:50:03;;;;;;;;;;;;;;;;;;5042372;28;19921;-69
2023/06/23 07:52:29;;;;;;;;;;;;;;;;;;5045834;28;19928;-68
2023/06/23 07:54:54;;;;;;;;;;;;;;;;;;5043850;28;19998;-68
2023/06/23 07:57:21;;;;;;;;;;;;;;;;;;5042375;28;20005;-66
2023/06/23 07:59:46;;;;;;;;;;;;;;;;;;5044361;28;19986;-69
2023/06/23 08:02:15;;;;;;;;;;;;;;;;;;5043466;28;19924;-69
2023/06/23 08:04:40;;;;;;;;;;;;;;;;;;5042026;28;20025;-66
2023/06/23 08:07:05;;;;;;;;;;;;;;;;;;5028177;28;19920;-69
2023/06/23 08:09:30;;;;;;;;;;;;;;;;;;5040896;28;19966;-70
2023/06/23 08:11:59;;;;;;;;;;;;;;;;;;5043760;28;20043;-70
2023/06/23 08:14:26;;;;;;;;;;;;;;;;;;5044374;28;19920;-68
2023/06/23 08:16:57;;;;;;;;;;;;;;;;;;5027417;28;20338;-67
2023/06/23 08:19:24;;;;;;;;;;;;;;;;;;5043535;28;19959;-66
2023/06/23 08:21:52;;;;;;;;;;;;;;;;;;5060263;28;19981;-68
2023/06/23 08:24:20;;;;;;;;;;;;;;;;;;5045982;28;19916;-65
2023/06/23 08:26:45;;;;;;;;;;;;;;;;;;5043424;28;19954;-66
2023/06/23 08:29:11;;;;;;;;;;;;;;;;;;5043592;28;20007;-66
2023/06/23 08:31:41;;;;;;;;;;;;;;;;;;5044407;28;20002;-66
2023/06/23 08:34:08;;;;;;;;;;;;;;;;;;5028960;28;20336;-66
2023/06/23 08:36:39;;;;;;;;;;;;;;;;;;5042029;28;19967;-66
2023/06/23 08:39:05;;;;;;;;;;;;;;;;;;5046142;28;19966;-65
2023/06/23 08:41:33;;;;;;;;;;;;;;;;;;5031498;28;19925;-65
2023/06/23 08:43:58;;;;;;;;;;;;;;;;;;5048542;28;19920;-69
2023/06/23 08:46:23;;;;;;;;;;;;;;;;;;5048421;28;19946;-66
2023/06/23 08:48:51;;;;;;;;;;;;;;;;;;5049791;28;19921;-66
2023/06/23 08:51:19;;;;;;;;;;;;;;;;;;5049205;28;21940;-67
2023/06/23 08:53:44;;;;;;;;;;;;;;;;;;5049252;28;19962;-67
2023/06/23 08:56:09;;;;;;;;;;;;;;;;;;5063760;28;20058;-66
2023/06/23 08:58:35;;;;;;;;;;;;;;;;;;5047175;28;19924;-68
2023/06/23 09:01:00;;;;;;;;;;;;;;;;;;5048878;28;20390;-66
2023/06/23 09:03:25;;;;;;;;;;;;;;;;;;5047604;28;19920;-67
2023/06/23 09:05:51;;;;;;;;;;;;;;;;;;5048436;28;20276;-67
2023/06/23 09:08:19;;;;;;;;;;;;;;;;;;5032394;28;19926;-67
2023/06/23 09:10:44;;;;;;;;;;;;;;;;;;5046718;28;20367;-68
2023/06/23 09:13:09;;;;;;;;;;;;;;;;;;5048316;28;20619;-68
2023/06/23 09:15:35;;;;;;;;;;;;;;;;;;5046596;28;20785;-68
2023/06/23 09:18:00;;;;;;;;;;;;;;;;;;5047340;28;20417;-70
2023/06/23 09:20:34;;;;;;;;;;;;;;;;;;5048001;28;20473;-69
2023/06/23 09:23:02;;;;;;;;;;;;;;;;;;5047658;28;19920;-68
2023/06/23 09:25:33;;;;;;;;;;;;;;;;;;5047592;28;19974;-67
2023/06/23 09:27:58;;;;;;;;;;;;;;;;;;5043544;28;19916;-66
2023/06/23 09:30:26;;;;;;;;;;;;;;;;;;5030473;28;19916;-67
2023/06/23 09:32:51;;;;;;;;;;;;;;;;;;5031764;28;19924;-65
2023/06/23 09:35:22;;;;;;;;;;;;;;;;;;5048128;28;19951;-70
2023/06/23 09:37:47;;;;;;;;;;;;;;;;;;5048431;28;19927;-70
2023/06/23 09:40:15;;;;;;;;;;;;;;;;;;5047001;28;19917;-70
2023/06/23 09:42:40;;;;;;;;;;;;;;;;;;5046233;28;19916;-68
2023/06/23 09:45:06;;;;;;;;;;;;;;;;;;5063084;28;20023;-68
2023/06/23 09:47:33;;;;;;;;;;;;;;;;;;5048529;28;19916;-65
2023/06/23 09:50:01;;;;;;;;;;;;;;;;;;5048414;28;19923;-66
2023/06/23 09:52:26;;;;;;;;;;;;;;;;;;5047744;28;19931;-66
2023/06/23 09:54:52;;;;;;;;;;;;;;;;;;5048257;28;19963;-65
2023/06/23 09:57:17;;;;;;;;;;;;;;;;;;5030487;28;19939;-68
2023/06/23 09:59:44;;;;;;;;;;;;;;;;;;5048612;28;20371;-67
2023/06/23 10:02:10;;;;;;;;;;;;;;;;;;5047370;28;19928;-69
2023/06/23 10:04:35;;;;;;;;;;;;;;;;;;5047637;28;20023;-68
2023/06/23 10:07:00;;;;;;;;;;;;;;;;;;5047150;28;19921;-66
2023/06/23 10:09:26;;;;;;;;;;;;;;;;;;5030593;28;19917;-68
2023/06/23 10:11:54;;;;;;;;;;;;;;;;;;5045804;28;19931;-70
2023/06/23 10:14:20;;;;;;;;;;;;;;;;;;5047572;28;19921;-67
2023/06/23 10:16:45;;;;;;;;;;;;;;;;;;5029945;28;20780;-67
2023/06/23 10:19:13;;;;;;;;;;;;;;;;;;5047584;28;20006;-68
2023/06/23 10:21:38;;;;;;;;;;;;;;;;;;5029385;28;19978;-68
2023/06/23 10:24:04;;;;;;;;;;;;;;;;;;5049094;28;20036;-68
2023/06/23 10:26:34;;;;;;;;;;;;;;;;;;5046119;28;20030;-68
2023/06/23 10:29:00;;;;;;;;;;;;;;;;;;5048725;28;20564;-67
2023/06/23 10:31:26;;;;;;;;;;;;;;;;;;5063212;28;19920;-68
2023/06/23 10:33:52;;;;;;;;;;;;;;;;;;5044591;28;19924;-69
2023/06/23 10:36:20;;;;;;;;;;;;;;;;;;5048645;28;19921;-69
2023/06/23 10:38:51;;;;;;;;;;;;;;;;;;5046844;28;19923;-69
2023/06/23 10:41:18;;;;;;;;;;;;;;;;;;5060325;28;19927;-70
2023/06/23 10:43:44;;;;;;;;;;;;;;;;;;5045769;28;19921;-66
2023/06/23 10:46:09;;;;;;;;;;;;;;;;;;5046638;28;19986;-70
2023/06/23 10:48:34;;;;;;;;;;;;;;;;;;5044389;28;19916;-65
2023/06/23 10:51:02;;;;;;;;;;;;;;;;;;5046676;28;19928;-69
2023/06/23 10:53:32;;;;;;;;;;;;;;;;;;5045493;28;19924;-70
2023/06/23 10:55:57;;;;;;;;;;;;;;;;;;5062131;28;19956;-68
2023/06/23 10:58:25;;;;;;;;;;;;;;;;;;5046777;28;20034;-64
2023/06/23 11:00:51;;;;;;;;;;;;;;;;;;5047552;28;19916;-69
2023/06/23 11:03:18;;;;;;;;;;;;;;;;;;5047444;28;19928;-69
2023/06/23 11:05:44;;;;;;;;;;;;;;;;;;5045184;28;19920;-68
2023/06/23 11:08:14;;;;;;;;;;;;;;;;;;5028933;28;19926;-68
2023/06/23 11:10:40;;;;;;;;;;;;;;;;;;5027912;28;19920;-66
2023/06/23 11:13:05;;;;;;;;;;;;;;;;;;5029179;28;19931;-64
2023/06/23 11:15:31;;;;;;;;;;;;;;;;;;5043965;28;19960;-66
2023/06/23 11:17:58;;;;;;;;;;;;;;;;;;5043929;28;19917;-67
2023/06/23 11:20:33;;;;;;;;;;;;;;;;;;5045665;28;19916;-66
2023/06/23 11:22:58;;;;;;;;;;;;;;;;;;5045186;28;19943;-67
2023/06/23 11:25:27;;;;;;;;;;;;;;;;;;5041581;28;19917;-67
2023/06/23 11:27:54;;;;;;;;;;;;;;;;;;5025037;28;19930;-67
2023/06/23 11:30:20;;;;;;;;;;;;;;;;;;5045186;28;20455;-68
2023/06/23 11:32:45;;;;;;;;;;;;;;;;;;5028015;28;19937;-66
2023/06/23 11:35:10;;;;;;;;;;;;;;;;;;5027889;28;20070;-68
2023/06/23 11:37:39;;;;;;;;;;;;;;;;;;5046137;28;20011;-69
2023/06/23 11:40:05;;;;;;;;;;;;;;;;;;5062905;28;19924;-67
2023/06/23 11:42:31;;;;;;;;;;;;;;;;;;5047900;28;19991;-64
2023/06/23 11:45:03;;;;;;;;;;;;;;;;;;5023711;28;19926;-66
2023/06/23 11:47:31;;;;;;;;;;;;;;;;;;5045753;28;20398;-66
2023/06/23 11:49:57;;;;;;;;;;;;;;;;;;5045273;28;19921;-67
2023/06/23 11:52:25;;;;;;;;;;;;;;;;;;5029518;28;19924;-66
2023/06/23 11:54:51;;;;;;;;;;;;;;;;;;5024271;28;19940;-67
2023/06/23 11:57:23;;;;;;;;;;;;;;;;;;5045061;28;19928;-68
2023/06/23 11:59:48;;;;;;;;;;;;;;;;;;5045868;28;19928;-66
2023/06/23 12:02:16;;;;;;;;;;;;;;;;;;5045154;28;19917;-66
2023/06/23 12:04:41;;;;;;;;;;;;;;;;;;5063302;28;19993;-65
2023/06/23 12:07:06;;;;;;;;;;;;;;;;;;5037593;28;19921;-65
2023/06/23 12:09:31;;;;;;;;;;;;;;;;;;5036836;28;19920;-66
2023/06/23 12:11:59;;;;;;;;;;;;;;;;;;5026810;28;20012;-68
2023/06/23 12:14:28;;;;;;;;;;;;;;;;;;5044288;28;20077;-67
2023/06/23 12:16:53;;;;;;;;;;;;;;;;;;5059621;28;19920;-67
2023/06/23 12:19:21;;;;;;;;;;;;;;;;;;5043716;28;19923;-69
2023/06/23 12:21:49;;;;;;;;;;;;;;;;;;5041582;28;20805;-68
2023/06/23 12:24:14;;;;;;;;;;;;;;;;;;5044174;28;20853;-66
2023/06/23 12:26:40;;;;;;;;;;;;;;;;;;5025362;28;19932;-65
2023/06/23 12:29:09;;;;;;;;;;;;;;;;;;5043159;28;19923;-65
2023/06/23 12:31:34;;;;;;;;;;;;;;;;;;5040171;28;19990;-66
2023/06/23 12:34:00;;;;;;;;;;;;;;;;;;5055228;28;20888;-66
2023/06/23 12:36:28;;;;;;;;;;;;;;;;;;5043755;28;19920;-66
2023/06/23 12:38:58;;;;;;;;;;;;;;;;;;5027627;28;20516;-72
2023/06/23 12:41:26;;;;;;;;;;;;;;;;;;5043492;28;19923;-66
2023/06/23 12:43:52;;;;;;;;;;;;;;;;;;5044910;28;19921;-65
2023/06/23 12:46:17;;;;;;;;;;;;;;;;;;5028174;28;19927;-66
2023/06/23 12:48:42;;;;;;;;;;;;;;;;;;5060507;28;19930;-66
2023/06/23 12:51:08;;;;;;;;;;;;;;;;;;5046530;28;20001;-67
2023/06/23 12:53:36;;;;;;;;;;;;;;;;;;5046079;28;19924;-66
2023/06/23 12:56:01;;;;;;;;;;;;;;;;;;5030575;28;19979;-66
2023/06/23 12:58:29;;;;;;;;;;;;;;;;;;5029928;28;20419;-65
2023/06/23 13:00:57;;;;;;;;;;;;;;;;;;5041526;28;19989;-65
2023/06/23 13:03:22;;;;;;;;;;;;;;;;;;5062085;28;21830;-65
2023/06/23 13:05:47;;;;;;;;;;;;;;;;;;5045002;28;19916;-63
2023/06/23 13:08:16;;;;;;;;;;;;;;;;;;5046527;28;19923;-65
2023/06/23 13:10:44;;;;;;;;;;;;;;;;;;5026943;28;19974;-65
2023/06/23 13:13:11;;;;;;;;;;;;;;;;;;5044941;28;19925;-67
2023/06/23 13:15:37;;;;;;;;;;;;;;;;;;5046249;28;20011;-66
2023/06/23 13:18:02;;;;;;;;;;;;;;;;;;5029204;28;20474;-66
2023/06/23 13:20:30;;;;;;;;;;;;;;;;;;5043891;28;20018;-66
2023/06/23 13:22:55;;;;;;;;;;;;;;;;;;5062899;28;19927;-64
2023/06/23 13:25:23;;;;;;;;;;;;;;;;;;5047158;28;20030;-64
2023/06/23 13:27:51;;;;;;;;;;;;;;;;;;5031633;28;19916;-66
2023/06/23 13:30:16;;;;;;;;;;;;;;;;;;5047860;28;19920;-64
2023/06/23 13:32:41;;;;;;;;;;;;;;;;;;5048419;28;19956;-66
2023/06/23 13:35:12;;;;;;;;;;;;;;;;;;5031889;28;20057;-65
2023/06/23 13:37:38;;;;;;;;;;;;;;;;;;5030873;28;19932;-67
2023/06/23 13:40:06;;;;;;;;;;;;;;;;;;5047704;28;19920;-65
2023/06/23 13:42:35;;;;;;;;;;;;;;;;;;5032287;28;19916;-65
2023/06/23 13:45:04;;;;;;;;;;;;;;;;;;5048061;28;20000;-67
2023/06/23 13:47:29;;;;;;;;;;;;;;;;;;5046721;28;20717;-67
2023/06/23 13:49:54;;;;;;;;;;;;;;;;;;5029984;28;20019;-66
2023/06/23 13:52:23;;;;;;;;;;;;;;;;;;5050487;28;19924;-71
2023/06/23 13:54:51;;;;;;;;;;;;;;;;;;5045739;28;19916;-68
2023/06/23 13:57:19;;;;;;;;;;;;;;;;;;5048464;28;19920;-67
2023/06/23 13:59:47;;;;;;;;;;;;;;;;;;5030706;28;20399;-66
2023/06/23 14:02:15;;;;;;;;;;;;;;;;;;5045821;28;19984;-66
2023/06/23 14:04:40;;;;;;;;;;;;;;;;;;5030265;28;20595;-66
2023/06/23 14:07:08;;;;;;;;;;;;;;;;;;5031090;28;19923;-66
2023/06/23 14:09:37;;;;;;;;;;;;;;;;;;5048381;28;20015;-64
2023/06/23 14:12:02;;;;;;;;;;;;;;;;;;5047621;28;20299;-65
2023/06/23 14:14:29;;;;;;;;;;;;;;;;;;5043607;28;20010;-66
2023/06/23 14:16:54;;;;;;;;;;;;;;;;;;5046888;28;19920;-65
2023/06/23 14:19:22;;;;;;;;;;;;;;;;;;5047630;28;19928;-66
2023/06/23 14:21:49;;;;;;;;;;;;;;;;;;5044874;28;19947;-63
2023/06/23 14:24:15;;;;;;;;;;;;;;;;;;5048228;28;20390;-65
2023/06/23 14:26:40;;;;;;;;;;;;;;;;;;5029442;28;19916;-65
2023/06/23 14:29:05;;;;;;;;;;;;;;;;;;5043595;28;19925;-64
2023/06/23 14:31:33;;;;;;;;;;;;;;;;;;5048281;28;19944;-66
2023/06/23 14:33:58;;;;;;;;;;;;;;;;;;5046706;28;19967;-69
2023/06/23 14:36:23;;;;;;;;;;;;;;;;;;5047444;28;20512;-70
2023/06/23 14:38:51;;;;;;;;;;;;;;;;;;5045837;28;19921;-66
2023/06/23 14:41:41;;;;;;;;;;;;;;;;;;5046269;28;19923;-64
2023/06/23 14:44:06;;;;;;;;;;;;;;;;;;5046355;28;19920;-65
2023/06/23 14:46:32;;;;;;;;;;;;;;;;;;5063559;28;20003;-65
2023/06/23 14:48:58;;;;;;;;;;;;;;;;;;5047387;28;20245;-64
2023/06/23 14:51:27;;;;;;;;;;;;;;;;;;5046114;28;19932;-66
2023/06/23 14:53:52;;;;;;;;;;;;;;;;;;5031411;28;19925;-65
2023/06/23 14:56:17;;;;;;;;;;;;;;;;;;5044755;28;19921;-65
2023/06/23 14:58:43;;;;;;;;;;;;;;;;;;5029586;28;19935;-65
2023/06/23 15:01:11;;;;;;;;;;;;;;;;;;5047823;28;20854;-66
2023/06/23 15:03:36;;;;;;;;;;;;;;;;;;5044961;28;20015;-64
2023/06/23 15:06:01;;;;;;;;;;;;;;;;;;5030299;28;20027;-65
2023/06/23 15:08:27;;;;;;;;;;;;;;;;;;5045455;28;20687;-67
2023/06/23 15:10:52;;;;;;;;;;;;;;;;;;5045803;28;19927;-65
2023/06/23 15:13:20;;;;;;;;;;;;;;;;;;5046905;28;20011;-68
2023/06/23 15:15:45;;;;;;;;;;;;;;;;;;5046249;28;19920;-63
2023/06/23 15:18:13;;;;;;;;;;;;;;;;;;5048775;28;20948;-63
2023/06/23 15:20:39;;;;;;;;;;;;;;;;;;5047120;28;20004;-65
2023/06/23 15:23:07;;;;;;;;;;;;;;;;;;5048271;28;19916;-66
2023/06/23 15:25:35;;;;;;;;;;;;;;;;;;5045371;28;19956;-65
2023/06/23 15:28:00;;;;;;;;;;;;;;;;;;5029803;28;20390;-65
2023/06/23 15:30:25;;;;;;;;;;;;;;;;;;5045498;28;20010;-68
2023/06/23 15:32:53;;;;;;;;;;;;;;;;;;5027080;28;20482;-66
2023/06/23 15:35:20;;;;;;;;;;;;;;;;;;5045227;28;21323;-68
2023/06/23 15:37:46;;;;;;;;;;;;;;;;;;5045134;28;19966;-63
2023/06/23 15:40:13;;;;;;;;;;;;;;;;;;5046715;28;19916;-64
2023/06/23 15:42:41;;;;;;;;;;;;;;;;;;5046148;28;20599;-68
2023/06/23 15:45:06;;;;;;;;;;;;;;;;;;5045509;28;19921;-65
2023/06/23 15:50:48;;;;;;;;;;;;;;;;;;5047157;28;20405;-66
2023/06/23 15:53:13;;;;;;;;;;;;;;;;;;5062664;28;19950;-65
2023/06/23 15:55:41;;;;;;;;;;;;;;;;;;5029171;28;19921;-64
2023/06/23 15:58:06;;;;;;;;;;;;;;;;;;5044089;28;20003;-65
2023/06/23 16:00:32;;;;;;;;;;;;;;;;;;5036852;28;19927;-64
2023/06/23 16:02:57;;;;;;;;;;;;;;;;;;5024768;28;19921;-66
2023/06/23 16:05:28;;;;;;;;;;;;;;;;;;5026814;28;19959;-65
2023/06/23 16:07:53;;;;;;;;;;;;;;;;;;5041826;28;19912;-64
2023/06/23 16:10:18;;;;;;;;;;;;;;;;;;5043196;28;19920;-63
2023/06/23 16:12:44;;;;;;;;;;;;;;;;;;5040784;28;20004;-65
2023/06/23 16:15:15;;;;;;;;;;;;;;;;;;5026550;28;19979;-66
2023/06/23 16:17:43;;;;;;;;;;;;;;;;;;5042785;28;19928;-65
2023/06/23 16:20:11;;;;;;;;;;;;;;;;;;5045544;28;19916;-66
2023/06/23 16:22:36;;;;;;;;;;;;;;;;;;5058915;28;19920;-65
2023/06/23 16:25:02;;;;;;;;;;;;;;;;;;5044970;28;20348;-70
2023/06/23 16:27:28;;;;;;;;;;;;;;;;;;5045765;28;20943;-66
2023/06/23 16:29:53;;;;;;;;;;;;;;;;;;5040653;28;19979;-66
2023/06/23 16:32:19;;;;;;;;;;;;;;;;;;5041432;28;22104;-65
2023/06/23 16:34:46;;;;;;;;;;;;;;;;;;5040776;28;19927;-65
2023/06/23 16:37:12;;;;;;;;;;;;;;;;;;5058851;28;19917;-64
2023/06/23 16:39:40;;;;;;;;;;;;;;;;;;5036882;28;19936;-64
2023/06/23 16:42:05;;;;;;;;;;;;;;;;;;5025908;28;19920;-64
2023/06/23 16:44:30;;;;;;;;;;;;;;;;;;5060211;28;21512;-65
2023/06/23 16:46:57;;;;;;;;;;;;;;;;;;5040792;28;20530;-65
2023/06/23 16:49:23;;;;;;;;;;;;;;;;;;5025401;28;19920;-64
2023/06/23 16:51:48;;;;;;;;;;;;;;;;;;5034081;28;20375;-64
2023/06/23 16:54:16;;;;;;;;;;;;;;;;;;5016615;28;19921;-65